sensor_id;sensor_type;location;lat;lon;timestamp;pressure;altitude;pressure_sealevel;temperature;humidity
17060;BME280;8646;49.716;9.266;2022-10-31T00:01:01;100757.56;;;12.52;100.00
17060;BME280;8646;49.716;9.266;2022-10-31T00:04:05;100757.66;;;12.49;100.00
17060;BME280;8646;49.716;9.266;2022-10-31T00:07:08;100741.38;;;12.29;100.00
17060;BME280;8646;49.716;9.266;2022-10-31T00:10:11;100760.38;;;12.49;100.00
17060;BME280;8646;49.716;9.266;2022-10-31T00:13:14;100770.19;;;12.53;100.00
17060;BME280;8646;49.716;9.266;2022-10-31T00:16:19;100762.91;;;12.54;100.00
17060;BME280;8646;49.716;9.266;2022-10-31T00:19:23;100762.97;;;12.52;100.00
17060;BME280;8646;49.716;9.266;2022-10-31T00:22:26;100765.69;;;12.52;100.00
17060;BME280;8646;49.716;9.266;2022-10-31T00:25:33;100770.22;;;12.52;100.00
17060;BME280;8646;49.716;9.266;2022-10-31T00:28:36;100773.97;;;12.49;100.00
17060;BME280;8646;49.716;9.266;2022-10-31T00:31:38;100772.22;;;12.48;100.00
17060;BME280;8646;49.716;9.266;2022-10-31T00:34:43;100766.69;;;12.50;100.00
17060;BME280;8646;49.716;9.266;2022-10-31T00:37:46;100769.34;;;12.51;100.00
17060;BME280;8646;49.716;9.266;2022-10-31T00:40:48;100763.91;;;12.51;100.00
17060;BME280;8646;49.716;9.266;2022-10-31T00:43:51;100773.00;;;12.50;100.00
17060;BME280;8646;49.716;9.266;2022-10-31T00:46:54;100769.34;;;12.51;100.00
17060;BME280;8646;49.716;9.266;2022-10-31T00:49:58;100765.69;;;12.52;100.00
17060;BME280;8646;49.716;9.266;2022-10-31T00:53:01;100764.75;;;12.53;100.00
17060;BME280;8646;49.716;9.266;2022-10-31T00:56:05;100762.03;;;12.53;100.00
17060;BME280;8646;49.716;9.266;2022-10-31T00:59:08;100763.91;;;12.51;100.00
17060;BME280;8646;49.716;9.266;2022-10-31T01:02:11;100761.22;;;12.51;100.00
17060;BME280;8646;49.716;9.266;2022-10-31T01:05:16;100762.16;;;12.50;100.00
17060;BME280;8646;49.716;9.266;2022-10-31T01:08:19;100767.59;;;12.50;100.00
17060;BME280;8646;49.716;9.266;2022-10-31T01:11:22;100767.59;;;12.50;100.00
17060;BME280;8646;49.716;9.266;2022-10-31T01:14:25;100774.94;;;12.48;100.00
17060;BME280;8646;49.716;9.266;2022-10-31T01:17:28;100770.44;;;12.47;100.00
17060;BME280;8646;49.716;9.266;2022-10-31T01:20:33;100769.63;;;12.45;100.00
17060;BME280;8646;49.716;9.266;2022-10-31T01:23:36;100767.78;;;12.46;100.00
17060;BME280;8646;49.716;9.266;2022-10-31T01:26:39;100768.63;;;12.48;100.00
17060;BME280;8646;49.716;9.266;2022-10-31T01:29:42;100766.97;;;12.44;100.00
17060;BME280;8646;49.716;9.266;2022-10-31T01:32:45;100769.81;;;12.41;100.00
17060;BME280;8646;49.716;9.266;2022-10-31T01:35:49;100766.25;;;12.40;100.00
17060;BME280;8646;49.716;9.266;2022-10-31T01:38:53;100771.66;;;12.40;100.00
17060;BME280;8646;49.716;9.266;2022-10-31T01:41:57;100778.09;;;12.38;100.00
17060;BME280;8646;49.716;9.266;2022-10-31T01:45:01;100780.88;;;12.36;100.00
17060;BME280;8646;49.716;9.266;2022-10-31T01:48:12;100768.91;;;12.20;100.00
17060;BME280;8646;49.716;9.266;2022-10-31T01:51:20;100781.97;;;12.32;100.00
17060;BME280;8646;49.716;9.266;2022-10-31T01:54:28;100783.03;;;12.28;100.00
17060;BME280;8646;49.716;9.266;2022-10-31T01:57:35;100784.03;;;12.26;100.00
17060;BME280;8646;49.716;9.266;2022-10-31T02:00:42;100786.84;;;12.24;100.00
17060;BME280;8646;49.716;9.266;2022-10-31T02:03:47;100785.97;;;12.23;100.00
17060;BME280;8646;49.716;9.266;2022-10-31T02:06:56;100786.97;;;12.21;100.00
17060;BME280;8646;49.716;9.266;2022-10-31T02:10:02;100791.38;;;12.23;100.00
17060;BME280;8646;49.716;9.266;2022-10-31T02:13:07;100787.78;;;12.23;100.00
17060;BME280;8646;49.716;9.266;2022-10-31T02:16:10;100784.19;;;12.22;100.00
17060;BME280;8646;49.716;9.266;2022-10-31T02:19:17;100777.88;;;12.22;100.00
17060;BME280;8646;49.716;9.266;2022-10-31T02:22:26;100784.31;;;12.19;100.00
17060;BME280;8646;49.716;9.266;2022-10-31T02:25:46;100790.63;;;12.20;100.00
17060;BME280;8646;49.716;9.266;2022-10-31T02:32:33;100784.56;;;12.13;100.00
17060;BME280;8646;49.716;9.266;2022-10-31T02:35:47;100783.94;;;12.07;100.00
17060;BME280;8646;49.716;9.266;2022-10-31T02:39:01;100775.03;;;12.03;100.00
17060;BME280;8646;49.716;9.266;2022-10-31T02:42:08;100777.97;;;11.99;100.00
17060;BME280;8646;49.716;9.266;2022-10-31T02:45:15;100778.91;;;11.98;100.00
17060;BME280;8646;49.716;9.266;2022-10-31T02:48:27;100780.78;;;11.96;100.00
17060;BME280;8646;49.716;9.266;2022-10-31T02:51:30;100786.31;;;11.93;100.00
17060;BME280;8646;49.716;9.266;2022-10-31T02:54:33;100778.28;;;11.91;100.00
17060;BME280;8646;49.716;9.266;2022-10-31T02:57:37;100781.97;;;11.89;100.00
17060;BME280;8646;49.716;9.266;2022-10-31T03:00:46;100786.56;;;11.87;100.00
17060;BME280;8646;49.716;9.266;2022-10-31T03:07:34;100771.31;;;11.84;100.00
17060;BME280;8646;49.716;9.266;2022-10-31T03:10:45;100774.22;;;11.79;100.00
17060;BME280;8646;49.716;9.266;2022-10-31T03:13:52;100777.94;;;11.77;100.00
17060;BME280;8646;49.716;9.266;2022-10-31T03:17:04;100781.53;;;11.77;100.00
17060;BME280;8646;49.716;9.266;2022-10-31T03:20:10;100781.53;;;11.77;100.00
17060;BME280;8646;49.716;9.266;2022-10-31T03:23:15;100778.00;;;11.75;100.00
17060;BME280;8646;49.716;9.266;2022-10-31T03:26:21;100778.09;;;11.72;100.00
17060;BME280;8646;49.716;9.266;2022-10-31T03:29:27;100781.06;;;11.66;100.00
17060;BME280;8646;49.716;9.266;2022-10-31T03:32:34;100772.19;;;11.61;100.00
17060;BME280;8646;49.716;9.266;2022-10-31T03:35:42;100779.41;;;11.62;100.00
17060;BME280;8646;49.716;9.266;2022-10-31T03:38:47;100777.56;;;11.63;100.00
17060;BME280;8646;49.716;9.266;2022-10-31T03:41:53;100776.75;;;11.61;100.00
17060;BME280;8646;49.716;9.266;2022-10-31T03:45:01;100782.09;;;11.62;100.00
17060;BME280;8646;49.716;9.266;2022-10-31T03:48:05;100781.16;;;11.63;100.00
17060;BME280;8646;49.716;9.266;2022-10-31T03:51:13;100782.16;;;11.61;100.00
17060;BME280;8646;49.716;9.266;2022-10-31T03:54:24;100778.56;;;11.60;100.00
17060;BME280;8646;49.716;9.266;2022-10-31T03:57:33;100785.91;;;11.58;100.00
17060;BME280;8646;49.716;9.266;2022-10-31T04:00:40;100771.53;;;11.56;100.00
17060;BME280;8646;49.716;9.266;2022-10-31T04:03:44;100773.44;;;11.53;100.00
17060;BME280;8646;49.716;9.266;2022-10-31T04:06:50;100776.34;;;11.48;100.00
17060;BME280;8646;49.716;9.266;2022-10-31T04:09:53;100777.25;;;11.48;100.00
17060;BME280;8646;49.716;9.266;2022-10-31T04:13:01;100772.75;;;11.47;100.00
17060;BME280;8646;49.716;9.266;2022-10-31T04:16:07;100776.41;;;11.46;100.00
17060;BME280;8646;49.716;9.266;2022-10-31T04:19:16;100778.22;;;11.46;100.00
17060;BME280;8646;49.716;9.266;2022-10-31T04:22:20;100773.75;;;11.45;100.00
17060;BME280;8646;49.716;9.266;2022-10-31T04:25:23;100769.47;;;11.39;100.00
17060;BME280;8646;49.716;9.266;2022-10-31T04:28:27;100768.59;;;11.39;100.00
17060;BME280;8646;49.716;9.266;2022-10-31T04:31:29;100768.47;;;11.42;100.00
17060;BME280;8646;49.716;9.266;2022-10-31T04:34:32;100767.53;;;11.43;100.00
17060;BME280;8646;49.716;9.266;2022-10-31T04:37:37;100773.91;;;11.42;100.00
17060;BME280;8646;49.716;9.266;2022-10-31T04:40:40;100766.66;;;11.42;100.00
17060;BME280;8646;49.716;9.266;2022-10-31T04:43:43;100762.91;;;11.45;100.00
17060;BME280;8646;49.716;9.266;2022-10-31T04:46:46;100769.47;;;11.39;100.00
17060;BME280;8646;49.716;9.266;2022-10-31T04:49:49;100761.34;;;11.39;100.00
17060;BME280;8646;49.716;9.266;2022-10-31T04:52:53;100757.63;;;11.42;100.00
17060;BME280;8646;49.716;9.266;2022-10-31T04:55:57;100754.94;;;11.42;100.00
17060;BME280;8646;49.716;9.266;2022-10-31T04:59:01;100757.63;;;11.42;100.00
17060;BME280;8646;49.716;9.266;2022-10-31T05:02:04;100755.72;;;11.44;100.00
17060;BME280;8646;49.716;9.266;2022-10-31T05:05:08;100759.47;;;11.41;100.00
17060;BME280;8646;49.716;9.266;2022-10-31T05:08:12;100734.53;;;11.32;100.00
17060;BME280;8646;49.716;9.266;2022-10-31T05:11:15;100755.13;;;11.36;100.00
17060;BME280;8646;49.716;9.266;2022-10-31T05:14:18;100749.56;;;11.40;100.00
17060;BME280;8646;49.716;9.266;2022-10-31T05:17:21;100750.97;;;11.27;100.00
17060;BME280;8646;49.716;9.266;2022-10-31T05:20:26;100751.03;;;11.26;100.00
17060;BME280;8646;49.716;9.266;2022-10-31T05:23:30;100749.97;;;11.30;100.00
17060;BME280;8646;49.716;9.266;2022-10-31T05:26:33;100746.56;;;11.25;100.00
17060;BME280;8646;49.716;9.266;2022-10-31T05:29:36;100745.63;;;11.26;100.00
17060;BME280;8646;49.716;9.266;2022-10-31T05:32:39;100742.44;;;11.15;100.00
17060;BME280;8646;49.716;9.266;2022-10-31T05:35:42;100749.88;;;11.09;100.00
17060;BME280;8646;49.716;9.266;2022-10-31T05:38:46;100738.25;;;11.06;100.00
17060;BME280;8646;49.716;9.266;2022-10-31T05:41:49;100739.38;;;11.00;100.00
17060;BME280;8646;49.716;9.266;2022-10-31T05:44:52;100734.91;;;10.99;100.00
17060;BME280;8646;49.716;9.266;2022-10-31T05:47:56;100737.06;;;11.13;100.00
17060;BME280;8646;49.716;9.266;2022-10-31T05:51:01;100736.91;;;11.18;100.00
17060;BME280;8646;49.716;9.266;2022-10-31T05:54:05;100738.84;;;11.14;100.00
17060;BME280;8646;49.716;9.266;2022-10-31T05:57:13;100748.19;;;11.05;100.00
17060;BME280;8646;49.716;9.266;2022-10-31T06:00:18;100744.66;;;11.03;100.00
17060;BME280;8646;49.716;9.266;2022-10-31T06:03:20;100750.31;;;10.97;100.00
17060;BME280;8646;49.716;9.266;2022-10-31T06:06:23;100750.22;;;11.00;100.00
17060;BME280;8646;49.716;9.266;2022-10-31T06:09:27;100751.31;;;10.95;100.00
17060;BME280;8646;49.716;9.266;2022-10-31T06:12:31;100750.31;;;10.97;100.00
17060;BME280;8646;49.716;9.266;2022-10-31T06:15:33;100744.66;;;11.03;100.00
17060;BME280;8646;49.716;9.266;2022-10-31T06:18:36;100744.91;;;10.97;100.00
17060;BME280;8646;49.716;9.266;2022-10-31T06:21:39;100751.31;;;10.95;100.00
17060;BME280;8646;49.716;9.266;2022-10-31T06:24:43;100748.19;;;11.05;100.00
17060;BME280;8646;49.716;9.266;2022-10-31T06:27:46;100744.59;;;11.05;100.00
17060;BME280;8646;49.716;9.266;2022-10-31T06:30:49;100745.63;;;11.02;100.00
17060;BME280;8646;49.716;9.266;2022-10-31T06:33:52;100756.38;;;11.04;100.00
17060;BME280;8646;49.716;9.266;2022-10-31T06:36:55;100757.50;;;10.98;100.00
17060;BME280;8646;49.716;9.266;2022-10-31T06:39:59;100762.97;;;10.97;100.00
17060;BME280;8646;49.716;9.266;2022-10-31T06:43:02;100769.22;;;10.99;100.00
17060;BME280;8646;49.716;9.266;2022-10-31T06:46:05;100766.81;;;10.91;100.00
17060;BME280;8646;49.716;9.266;2022-10-31T06:49:08;100770.78;;;10.81;100.00
17060;BME280;8646;49.716;9.266;2022-10-31T06:52:11;100766.75;;;10.93;100.00
17060;BME280;8646;49.716;9.266;2022-10-31T06:55:15;100770.22;;;10.96;100.00
17060;BME280;8646;49.716;9.266;2022-10-31T06:58:18;100775.75;;;10.93;100.00
17060;BME280;8646;49.716;9.266;2022-10-31T07:01:21;100772.72;;;11.02;100.00
17060;BME280;8646;49.716;9.266;2022-10-31T07:04:24;100771.44;;;11.11;100.00
17060;BME280;8646;49.716;9.266;2022-10-31T07:07:26;100778.81;;;11.07;100.00
17060;BME280;8646;49.716;9.266;2022-10-31T07:10:33;100759.91;;;11.06;100.00
17060;BME280;8646;49.716;9.266;2022-10-31T07:13:41;100772.63;;;11.27;100.00
17060;BME280;8646;49.716;9.266;2022-10-31T07:16:44;100778.59;;;11.37;100.00
17060;BME280;8646;49.716;9.266;2022-10-31T07:19:50;100780.41;;;11.36;100.00
17060;BME280;8646;49.716;9.266;2022-10-31T07:22:53;100778.84;;;11.31;100.00
17060;BME280;8646;49.716;9.266;2022-10-31T07:25:57;100778.78;;;11.32;100.00
17060;BME280;8646;49.716;9.266;2022-10-31T07:29:01;100781.53;;;11.31;100.00
17060;BME280;8646;49.716;9.266;2022-10-31T07:32:04;100783.41;;;11.29;100.00
17060;BME280;8646;49.716;9.266;2022-10-31T07:35:07;100787.84;;;11.31;100.00
17060;BME280;8646;49.716;9.266;2022-10-31T07:38:12;100785.72;;;11.39;100.00
17060;BME280;8646;49.716;9.266;2022-10-31T07:41:16;100778.22;;;11.46;100.00
17060;BME280;8646;49.716;9.266;2022-10-31T07:44:19;100779.75;;;11.53;100.00
17060;BME280;8646;49.716;9.266;2022-10-31T07:47:22;100779.94;;;11.48;100.00
17060;BME280;8646;49.716;9.266;2022-10-31T07:50:27;100784.19;;;11.56;100.00
17060;BME280;8646;49.716;9.266;2022-10-31T07:53:29;100785.13;;;11.55;100.00
17060;BME280;8646;49.716;9.266;2022-10-31T07:56:33;100780.59;;;11.55;100.00
17060;BME280;8646;49.716;9.266;2022-10-31T07:59:36;100778.56;;;11.60;100.00
17060;BME280;8646;49.716;9.266;2022-10-31T08:02:39;100783.25;;;11.57;100.00
17060;BME280;8646;49.716;9.266;2022-10-31T08:05:42;100784.00;;;11.60;100.00
17060;BME280;8646;49.716;9.266;2022-10-31T08:08:47;100782.09;;;11.62;100.00
17060;BME280;8646;49.716;9.266;2022-10-31T08:11:52;100776.56;;;11.65;100.00
17060;BME280;8646;49.716;9.266;2022-10-31T08:14:55;100777.47;;;11.66;100.00
17060;BME280;8646;49.716;9.266;2022-10-31T08:17:58;100767.25;;;11.72;100.00
17060;BME280;8646;49.716;9.266;2022-10-31T08:21:03;100769.97;;;11.72;100.00
17060;BME280;8646;49.716;9.266;2022-10-31T08:24:06;100764.25;;;11.80;100.00
17060;BME280;8646;49.716;9.266;2022-10-31T08:27:10;100759.97;;;11.74;100.00
17060;BME280;8646;49.716;9.266;2022-10-31T08:30:14;100762.69;;;11.74;100.00
17060;BME280;8646;49.716;9.266;2022-10-31T08:33:17;100765.16;;;11.80;100.00
17060;BME280;8646;49.716;9.266;2022-10-31T08:36:21;100763.25;;;11.82;100.00
17060;BME280;8646;49.716;9.266;2022-10-31T08:39:24;100759.72;;;11.80;100.00
17060;BME280;8646;49.716;9.266;2022-10-31T08:42:28;100755.25;;;11.79;100.00
17060;BME280;8646;49.716;9.266;2022-10-31T08:45:32;100752.41;;;11.82;100.00
17060;BME280;8646;49.716;9.266;2022-10-31T08:48:35;100749.31;;;11.92;100.00
17060;BME280;8646;49.716;9.266;2022-10-31T08:51:38;100748.84;;;12.02;100.00
17060;BME280;8646;49.716;9.266;2022-10-31T08:54:41;100743.31;;;12.05;100.00
17060;BME280;8646;49.716;9.266;2022-10-31T08:57:45;100745.09;;;12.06;100.00
17060;BME280;8646;49.716;9.266;2022-10-31T09:00:50;100738.88;;;12.03;100.00
17060;BME280;8646;49.716;9.266;2022-10-31T09:03:54;100742.44;;;12.05;100.00
17060;BME280;8646;49.716;9.266;2022-10-31T09:06:57;100713.19;;;11.91;100.00
17060;BME280;8646;49.716;9.266;2022-10-31T09:10:20;100739.06;;;12.20;100.00
17060;BME280;8646;49.716;9.266;2022-10-31T09:13:24;100731.63;;;12.03;100.00
17060;BME280;8646;49.716;9.266;2022-10-31T09:16:29;100733.28;;;12.07;100.00
17060;BME280;8646;49.716;9.266;2022-10-31T09:19:31;100729.97;;;12.21;100.00
17060;BME280;8646;49.716;9.266;2022-10-31T09:22:35;100731.03;;;12.17;100.00
17060;BME280;8646;49.716;9.266;2022-10-31T09:25:38;100729.31;;;12.16;100.00
17060;BME280;8646;49.716;9.266;2022-10-31T09:28:44;100717.28;;;12.21;100.00
17060;BME280;8646;49.716;9.266;2022-10-31T09:31:49;100711.09;;;12.18;100.00
17060;BME280;8646;49.716;9.266;2022-10-31T09:34:51;100704.06;;;12.14;100.00
17060;BME280;8646;49.716;9.266;2022-10-31T09:37:55;100686.75;;;12.16;100.00
17060;BME280;8646;49.716;9.266;2022-10-31T09:41:05;100694.69;;;12.21;100.00
17060;BME280;8646;49.716;9.266;2022-10-31T09:44:19;100699.78;;;12.29;100.00
17060;BME280;8646;49.716;9.266;2022-10-31T09:47:33;100694.09;;;12.35;100.00
17060;BME280;8646;49.716;9.266;2022-10-31T09:50:41;100694.91;;;12.37;100.00
17060;BME280;8646;49.716;9.266;2022-10-31T09:53:48;100700.56;;;12.32;100.00
17060;BME280;8646;49.716;9.266;2022-10-31T09:56:52;100701.09;;;12.40;100.00
17060;BME280;8646;49.716;9.266;2022-10-31T09:59:58;100690.44;;;12.56;100.00
17060;BME280;8646;49.716;9.266;2022-10-31T10:03:07;100689.16;;;12.65;100.00
17060;BME280;8646;49.716;9.266;2022-10-31T10:06:15;100689.88;;;12.68;100.00
17060;BME280;8646;49.716;9.266;2022-10-31T10:09:21;100686.66;;;12.79;100.00
17060;BME280;8646;49.716;9.266;2022-10-31T10:12:39;100692.63;;;12.87;100.00
17060;BME280;8646;49.716;9.266;2022-10-31T10:15:58;100684.84;;;12.98;100.00
17060;BME280;8646;49.716;9.266;2022-10-31T10:19:17;100676.25;;;13.07;100.00
17060;BME280;8646;49.716;9.266;2022-10-31T10:22:29;100670.13;;;13.22;100.00
17060;BME280;8646;49.716;9.266;2022-10-31T10:25:38;100670.63;;;13.30;100.00
17060;BME280;8646;49.716;9.266;2022-10-31T10:28:44;100671.00;;;13.42;100.00
17060;BME280;8646;49.716;9.266;2022-10-31T10:31:51;100668.78;;;13.50;100.00
17060;BME280;8646;49.716;9.266;2022-10-31T10:35:01;100671.72;;;13.64;100.00
17060;BME280;8646;49.716;9.266;2022-10-31T10:38:13;100666.28;;;13.64;100.00
17060;BME280;8646;49.716;9.266;2022-10-31T10:41:20;100655.69;;;13.77;100.00
17060;BME280;8646;49.716;9.266;2022-10-31T10:44:23;100650.53;;;13.88;99.75
17060;BME280;8646;49.716;9.266;2022-10-31T10:47:52;100654.22;;;13.87;100.00
17060;BME280;8646;49.716;9.266;2022-10-31T10:51:00;100646.97;;;14.04;100.00
17060;BME280;8646;49.716;9.266;2022-10-31T10:54:17;100648.31;;;14.13;98.62
17060;BME280;8646;49.716;9.266;2022-10-31T10:57:36;100638.00;;;14.20;98.56
17060;BME280;8646;49.716;9.266;2022-10-31T11:00:42;100633.13;;;14.26;98.69
17060;BME280;8646;49.716;9.266;2022-10-31T11:03:49;100631.66;;;14.36;98.87
17060;BME280;8646;49.716;9.266;2022-10-31T11:07:00;100624.47;;;14.52;98.18
17060;BME280;8646;49.716;9.266;2022-10-31T11:10:04;100617.81;;;14.58;97.72
17060;BME280;8646;49.716;9.266;2022-10-31T11:13:21;100611.88;;;14.67;97.59
17060;BME280;8646;49.716;9.266;2022-10-31T11:16:31;100612.34;;;14.75;97.02
17060;BME280;8646;49.716;9.266;2022-10-31T11:19:42;100616.34;;;14.84;96.85
17060;BME280;8646;49.716;9.266;2022-10-31T11:22:47;100608.09;;;14.85;96.84
17060;BME280;8646;49.716;9.266;2022-10-31T11:25:54;100602.16;;;14.95;96.56
17060;BME280;8646;49.716;9.266;2022-10-31T11:28:58;100599.25;;;14.98;97.04
17060;BME280;8646;49.716;9.266;2022-10-31T11:32:03;100586.44;;;15.15;95.25
17060;BME280;8646;49.716;9.266;2022-10-31T11:35:10;100587.91;;;15.21;94.78
17060;BME280;8646;49.716;9.266;2022-10-31T11:38:20;100583.59;;;15.17;95.93
17060;BME280;8646;49.716;9.266;2022-10-31T11:41:26;100579.38;;;15.27;95.92
17060;BME280;8646;49.716;9.266;2022-10-31T11:44:31;100576.50;;;15.30;95.98
17060;BME280;8646;49.716;9.266;2022-10-31T11:47:35;100564.25;;;15.37;94.95
17060;BME280;8646;49.716;9.266;2022-10-31T11:50:41;100550.63;;;15.37;94.85
17060;BME280;8646;49.716;9.266;2022-10-31T11:53:50;100555.28;;;15.35;95.62
17060;BME280;8646;49.716;9.266;2022-10-31T11:57:01;100545.41;;;15.48;94.65
17060;BME280;8646;49.716;9.266;2022-10-31T12:00:20;100540.59;;;15.53;93.58
17060;BME280;8646;49.716;9.266;2022-10-31T12:03:33;100549.13;;;15.47;94.80
17060;BME280;8646;49.716;9.266;2022-10-31T12:06:42;100531.88;;;15.47;95.25
17060;BME280;8646;49.716;9.266;2022-10-31T12:09:47;100525.16;;;15.52;94.60
17060;BME280;8646;49.716;9.266;2022-10-31T12:12:57;100528.34;;;15.60;94.58
17060;BME280;8646;49.716;9.266;2022-10-31T12:16:11;100517.84;;;15.69;93.47
17060;BME280;8646;49.716;9.266;2022-10-31T12:19:21;100521.13;;;15.59;94.66
17060;BME280;8646;49.716;9.266;2022-10-31T12:22:39;100505.47;;;15.63;94.22
17060;BME280;8646;49.716;9.266;2022-10-31T12:25:49;100500.50;;;15.70;93.51
17060;BME280;8646;49.716;9.266;2022-10-31T12:29:11;100500.50;;;15.70;93.54
17060;BME280;8646;49.716;9.266;2022-10-31T12:32:27;100492.97;;;15.59;95.00
17060;BME280;8646;49.716;9.266;2022-10-31T12:35:39;100486.78;;;15.71;94.37
17060;BME280;8646;49.716;9.266;2022-10-31T12:38:55;100488.63;;;15.71;94.66
17060;BME280;8646;49.716;9.266;2022-10-31T12:42:09;100492.16;;;15.73;95.23
17060;BME280;8646;49.716;9.266;2022-10-31T12:45:30;100487.75;;;15.84;94.35
17060;BME280;8646;49.716;9.266;2022-10-31T12:49:15;100482.78;;;15.77;94.89
17060;BME280;8646;49.716;9.266;2022-10-31T12:52:37;100481.25;;;15.87;94.42
17060;BME280;8646;49.716;9.266;2022-10-31T12:55:53;100464.41;;;15.94;93.96
17060;BME280;8646;49.716;9.266;2022-10-31T12:59:02;100469.75;;;15.96;93.98
17060;BME280;8646;49.716;9.266;2022-10-31T13:02:13;100451.63;;;15.95;94.09
17060;BME280;8646;49.716;9.266;2022-10-31T13:05:25;100455.31;;;15.94;95.06
17060;BME280;8646;49.716;9.266;2022-10-31T13:08:34;100439.25;;;16.03;94.70
17060;BME280;8646;49.716;9.266;2022-10-31T13:11:43;100436.91;;;16.12;94.49
17060;BME280;8646;49.716;9.266;2022-10-31T13:14:56;100437.50;;;16.17;93.98
17060;BME280;8646;49.716;9.266;2022-10-31T13:18:05;100435.63;;;16.17;94.20
17060;BME280;8646;49.716;9.266;2022-10-31T13:21:13;100438.94;;;16.22;92.54
17060;BME280;8646;49.716;9.266;2022-10-31T13:24:22;100439.34;;;16.16;92.42
17060;BME280;8646;49.716;9.266;2022-10-31T13:27:30;100434.69;;;16.04;93.94
17060;BME280;8646;49.716;9.266;2022-10-31T13:30:37;100430.97;;;16.05;93.46
17060;BME280;8646;49.716;9.266;2022-10-31T13:33:44;100425.50;;;15.91;93.78
17060;BME280;8646;49.716;9.266;2022-10-31T13:36:53;100416.94;;;15.97;93.47
17060;BME280;8646;49.716;9.266;2022-10-31T13:40:09;100428.81;;;15.96;94.01
17060;BME280;8646;49.716;9.266;2022-10-31T13:43:26;100433.88;;;15.88;94.36
17060;BME280;8646;49.716;9.266;2022-10-31T13:46:37;100416.34;;;15.78;95.35
17060;BME280;8646;49.716;9.266;2022-10-31T13:49:41;100424.34;;;15.95;95.24
17060;BME280;8646;49.716;9.266;2022-10-31T13:52:44;100423.94;;;16.01;94.47
17060;BME280;8646;49.716;9.266;2022-10-31T13:55:48;100412.53;;;15.94;94.34
17060;BME280;8646;49.716;9.266;2022-10-31T13:59:03;100409.34;;;15.88;95.02
17060;BME280;8646;49.716;9.266;2022-10-31T14:02:14;100399.78;;;15.81;94.85
17060;BME280;8646;49.716;9.266;2022-10-31T14:05:22;100387.19;;;15.78;94.45
17060;BME280;8646;49.716;9.266;2022-10-31T14:08:33;100395.06;;;15.69;94.97
17060;BME280;8646;49.716;9.266;2022-10-31T14:11:36;100398.09;;;15.64;95.04
17060;BME280;8646;49.716;9.266;2022-10-31T14:14:44;100390.72;;;15.50;95.68
17060;BME280;8646;49.716;9.266;2022-10-31T14:17:51;100392.97;;;15.44;96.46
17060;BME280;8646;49.716;9.266;2022-10-31T14:20:55;100383.72;;;15.46;96.58
17060;BME280;8646;49.716;9.266;2022-10-31T14:23:58;100392.00;;;15.45;96.47
17060;BME280;8646;49.716;9.266;2022-10-31T14:27:04;100391.66;;;15.21;97.51
17060;BME280;8646;49.716;9.266;2022-10-31T14:30:19;100391.56;;;15.22;98.10
17060;BME280;8646;49.716;9.266;2022-10-31T14:33:25;100384.84;;;15.28;98.30
17060;BME280;8646;49.716;9.266;2022-10-31T14:36:39;100372.97;;;15.29;98.25
17060;BME280;8646;49.716;9.266;2022-10-31T14:39:54;100357.41;;;15.31;98.08
17060;BME280;8646;49.716;9.266;2022-10-31T14:46:39;100348.66;;;15.40;98.44
17060;BME280;8646;49.716;9.266;2022-10-31T14:50:09;100350.03;;;15.47;98.16
17060;BME280;8646;49.716;9.266;2022-10-31T14:53:19;100363.22;;;15.55;98.25
17060;BME280;8646;49.716;9.266;2022-10-31T14:56:26;100364.19;;;15.54;97.90
17060;BME280;8646;49.716;9.266;2022-10-31T14:59:31;100362.88;;;15.45;97.95
17060;BME280;8646;49.716;9.266;2022-10-31T15:02:41;100365.59;;;15.45;97.85
17060;BME280;8646;49.716;9.266;2022-10-31T15:05:50;100384.69;;;15.45;97.02
17060;BME280;8646;49.716;9.266;2022-10-31T15:08:54;100379.72;;;15.38;97.33
17060;BME280;8646;49.716;9.266;2022-10-31T15:11:58;100365.25;;;15.21;97.01
17060;BME280;8646;49.716;9.266;2022-10-31T15:15:11;100377.84;;;15.24;97.28
17060;BME280;8646;49.716;9.266;2022-10-31T15:18:21;100376.25;;;15.20;97.67
17060;BME280;8646;49.716;9.266;2022-10-31T15:21:26;100377.59;;;15.13;97.87
17060;BME280;8646;49.716;9.266;2022-10-31T15:24:33;100380.00;;;15.03;98.27
17060;BME280;8646;49.716;9.266;2022-10-31T15:27:40;100376.06;;;14.93;98.83
17060;BME280;8646;49.716;9.266;2022-10-31T15:30:50;100368.56;;;14.82;99.12
17060;BME280;8646;49.716;9.266;2022-10-31T15:33:59;100380.59;;;14.78;99.56
17060;BME280;8646;49.716;9.266;2022-10-31T15:37:03;100381.63;;;14.76;99.94
17060;BME280;8646;49.716;9.266;2022-10-31T15:40:12;100377.44;;;14.70;99.84
17060;BME280;8646;49.716;9.266;2022-10-31T15:43:17;100386.94;;;14.63;99.69
17060;BME280;8646;49.716;9.266;2022-10-31T15:46:20;100374.81;;;14.53;100.00
17060;BME280;8646;49.716;9.266;2022-10-31T15:49:35;100375.75;;;14.36;100.00
17060;BME280;8646;49.716;9.266;2022-10-31T15:52:42;100369.19;;;14.25;100.00
17060;BME280;8646;49.716;9.266;2022-10-31T15:55:50;100368.81;;;14.15;100.00
17060;BME280;8646;49.716;9.266;2022-10-31T15:58:56;100362.84;;;14.08;100.00
17060;BME280;8646;49.716;9.266;2022-10-31T16:02:02;100354.41;;;14.13;100.00
17060;BME280;8646;49.716;9.266;2022-10-31T16:05:17;100355.03;;;14.02;100.00
17060;BME280;8646;49.716;9.266;2022-10-31T16:08:30;100341.94;;;13.93;100.00
17060;BME280;8646;49.716;9.266;2022-10-31T16:11:36;100325.44;;;13.81;100.00
17060;BME280;8646;49.716;9.266;2022-10-31T16:14:39;100345.25;;;13.83;100.00
17060;BME280;8646;49.716;9.266;2022-10-31T16:17:45;100344.00;;;13.72;100.00
17060;BME280;8646;49.716;9.266;2022-10-31T16:20:52;100345.63;;;13.77;100.00
17060;BME280;8646;49.716;9.266;2022-10-31T16:24:00;100355.63;;;13.76;100.00
17060;BME280;8646;49.716;9.266;2022-10-31T16:27:17;100365.69;;;13.74;100.00
17060;BME280;8646;49.716;9.266;2022-10-31T16:30:30;100372.88;;;13.75;100.00